sensor_id;sensor_type;location;lat;lon;timestamp;P1;durP1;ratioP1;P2;durP2;ratioP2
54171;SDS011;40076;52.354;4.970;2022-09-09T00:00:43;3.10;;;1.65;;
54171;SDS011;40076;52.354;4.970;2022-09-09T00:03:15;3.78;;;1.55;;
54171;SDS011;40076;52.354;4.970;2022-09-09T00:05:49;3.95;;;1.67;;
54171;SDS011;40076;52.354;4.970;2022-09-09T00:08:19;6.28;;;2.10;;
54171;SDS011;40076;52.354;4.970;2022-09-09T00:10:49;4.78;;;2.50;;
54171;SDS011;40076;52.354;4.970;2022-09-09T00:13:22;7.00;;;2.28;;
54171;SDS011;40076;52.354;4.970;2022-09-09T00:21:38;5.22;;;2.65;;
54171;SDS011;40076;52.354;4.970;2022-09-09T00:24:10;5.88;;;2.70;;
54171;SDS011;40076;52.354;4.970;2022-09-09T00:26:53;6.85;;;2.70;;
54171;SDS011;40076;52.354;4.970;2022-09-09T00:34:49;6.88;;;3.60;;
54171;SDS011;40076;52.354;4.970;2022-09-09T00:37:19;5.70;;;3.50;;
54171;SDS011;40076;52.354;4.970;2022-09-09T00:39:46;8.40;;;4.07;;
54171;SDS011;40076;52.354;4.970;2022-09-09T00:42:17;8.43;;;4.32;;
54171;SDS011;40076;52.354;4.970;2022-09-09T00:50:28;14.25;;;5.10;;
54171;SDS011;40076;52.354;4.970;2022-09-09T00:58:31;7.72;;;5.15;;
54171;SDS011;40076;52.354;4.970;2022-09-09T01:01:10;7.28;;;5.55;;
54171;SDS011;40076;52.354;4.970;2022-09-09T01:03:39;8.18;;;5.10;;
54171;SDS011;40076;52.354;4.970;2022-09-09T01:08:55;7.45;;;5.50;;
54171;SDS011;40076;52.354;4.970;2022-09-09T01:17:01;11.30;;;6.47;;
54171;SDS011;40076;52.354;4.970;2022-09-09T01:27:37;11.50;;;7.20;;
54171;SDS011;40076;52.354;4.970;2022-09-09T01:30:08;13.43;;;7.55;;
54171;SDS011;40076;52.354;4.970;2022-09-09T01:32:40;13.45;;;8.35;;
54171;SDS011;40076;52.354;4.970;2022-09-09T01:35:10;13.52;;;7.65;;
54171;SDS011;40076;52.354;4.970;2022-09-09T01:37:41;13.88;;;8.15;;
54171;SDS011;40076;52.354;4.970;2022-09-09T01:40:07;11.63;;;7.88;;
54171;SDS011;40076;52.354;4.970;2022-09-09T01:42:33;11.00;;;7.80;;
54171;SDS011;40076;52.354;4.970;2022-09-09T01:44:58;12.10;;;7.88;;
54171;SDS011;40076;52.354;4.970;2022-09-09T01:47:24;13.38;;;7.35;;
54171;SDS011;40076;52.354;4.970;2022-09-09T01:49:50;12.50;;;7.70;;
54171;SDS011;40076;52.354;4.970;2022-09-09T01:52:15;15.35;;;9.00;;
54171;SDS011;40076;52.354;4.970;2022-09-09T01:54:40;14.00;;;9.15;;
54171;SDS011;40076;52.354;4.970;2022-09-09T01:57:08;14.10;;;9.15;;
54171;SDS011;40076;52.354;4.970;2022-09-09T02:05:38;13.57;;;8.77;;
54171;SDS011;40076;52.354;4.970;2022-09-09T02:08:09;11.40;;;8.32;;
54171;SDS011;40076;52.354;4.970;2022-09-09T02:10:42;12.45;;;8.82;;
54171;SDS011;40076;52.354;4.970;2022-09-09T02:13:15;13.80;;;8.27;;
54171;SDS011;40076;52.354;4.970;2022-09-09T02:18:16;10.30;;;8.10;;
54171;SDS011;40076;52.354;4.970;2022-09-09T02:20:49;12.82;;;7.75;;
54171;SDS011;40076;52.354;4.970;2022-09-09T02:23:16;10.57;;;8.15;;
54171;SDS011;40076;52.354;4.970;2022-09-09T02:25:42;10.65;;;8.02;;
54171;SDS011;40076;52.354;4.970;2022-09-09T02:28:09;12.52;;;7.95;;
54171;SDS011;40076;52.354;4.970;2022-09-09T02:30:37;11.18;;;7.88;;
54171;SDS011;40076;52.354;4.970;2022-09-09T02:33:05;12.27;;;8.38;;
54171;SDS011;40076;52.354;4.970;2022-09-09T02:35:34;13.82;;;9.32;;
54171;SDS011;40076;52.354;4.970;2022-09-09T02:38:03;13.30;;;8.50;;
54171;SDS011;40076;52.354;4.970;2022-09-09T02:40:31;12.77;;;8.43;;
54171;SDS011;40076;52.354;4.970;2022-09-09T02:42:56;11.95;;;8.55;;
54171;SDS011;40076;52.354;4.970;2022-09-09T02:45:23;11.82;;;8.25;;
54171;SDS011;40076;52.354;4.970;2022-09-09T02:47:53;14.32;;;8.57;;
54171;SDS011;40076;52.354;4.970;2022-09-09T02:50:37;11.18;;;8.00;;
54171;SDS011;40076;52.354;4.970;2022-09-09T02:55:54;12.20;;;8.20;;
54171;SDS011;40076;52.354;4.970;2022-09-09T02:58:24;15.65;;;8.60;;
54171;SDS011;40076;52.354;4.970;2022-09-09T03:00:50;11.80;;;7.70;;
54171;SDS011;40076;52.354;4.970;2022-09-09T03:03:17;11.85;;;7.65;;
54171;SDS011;40076;52.354;4.970;2022-09-09T03:05:43;10.82;;;7.88;;
54171;SDS011;40076;52.354;4.970;2022-09-09T03:08:09;16.58;;;8.55;;
54171;SDS011;40076;52.354;4.970;2022-09-09T03:10:35;9.48;;;7.75;;
54171;SDS011;40076;52.354;4.970;2022-09-09T03:13:02;10.35;;;7.95;;
54171;SDS011;40076;52.354;4.970;2022-09-09T03:15:30;10.13;;;7.45;;
54171;SDS011;40076;52.354;4.970;2022-09-09T03:17:56;12.00;;;7.57;;
54171;SDS011;40076;52.354;4.970;2022-09-09T03:20:22;13.93;;;8.45;;
54171;SDS011;40076;52.354;4.970;2022-09-09T03:22:48;11.30;;;7.65;;
54171;SDS011;40076;52.354;4.970;2022-09-09T03:25:14;13.25;;;8.35;;
54171;SDS011;40076;52.354;4.970;2022-09-09T03:27:40;13.65;;;8.32;;
54171;SDS011;40076;52.354;4.970;2022-09-09T03:30:05;12.02;;;8.25;;
54171;SDS011;40076;52.354;4.970;2022-09-09T03:32:31;13.93;;;8.93;;
54171;SDS011;40076;52.354;4.970;2022-09-09T03:34:56;12.88;;;9.05;;
54171;SDS011;40076;52.354;4.970;2022-09-09T03:37:22;14.95;;;8.55;;
54171;SDS011;40076;52.354;4.970;2022-09-09T03:39:47;15.07;;;8.98;;
54171;SDS011;40076;52.354;4.970;2022-09-09T03:42:13;13.68;;;8.45;;
54171;SDS011;40076;52.354;4.970;2022-09-09T03:44:39;12.02;;;8.98;;
54171;SDS011;40076;52.354;4.970;2022-09-09T03:47:06;14.05;;;9.45;;
54171;SDS011;40076;52.354;4.970;2022-09-09T03:49:32;13.90;;;9.05;;
54171;SDS011;40076;52.354;4.970;2022-09-09T03:51:57;15.77;;;10.05;;
54171;SDS011;40076;52.354;4.970;2022-09-09T03:54:24;10.45;;;8.75;;
54171;SDS011;40076;52.354;4.970;2022-09-09T03:56:50;13.30;;;9.57;;
54171;SDS011;40076;52.354;4.970;2022-09-09T03:59:15;13.18;;;9.25;;
54171;SDS011;40076;52.354;4.970;2022-09-09T04:01:40;13.05;;;9.13;;
54171;SDS011;40076;52.354;4.970;2022-09-09T04:04:06;15.43;;;9.63;;
54171;SDS011;40076;52.354;4.970;2022-09-09T04:06:31;13.55;;;9.52;;
54171;SDS011;40076;52.354;4.970;2022-09-09T04:08:56;15.20;;;9.70;;
54171;SDS011;40076;52.354;4.970;2022-09-09T04:11:22;13.40;;;9.43;;
54171;SDS011;40076;52.354;4.970;2022-09-09T04:13:47;15.52;;;10.00;;
54171;SDS011;40076;52.354;4.970;2022-09-09T04:16:13;15.27;;;10.30;;
54171;SDS011;40076;52.354;4.970;2022-09-09T04:18:39;14.35;;;9.27;;
54171;SDS011;40076;52.354;4.970;2022-09-09T04:21:05;13.60;;;9.15;;
54171;SDS011;40076;52.354;4.970;2022-09-09T04:23:31;12.25;;;9.90;;
54171;SDS011;40076;52.354;4.970;2022-09-09T04:25:59;12.93;;;9.15;;
54171;SDS011;40076;52.354;4.970;2022-09-09T04:28:27;16.08;;;9.38;;
54171;SDS011;40076;52.354;4.970;2022-09-09T04:30:54;12.25;;;9.38;;
54171;SDS011;40076;52.354;4.970;2022-09-09T04:33:19;12.43;;;8.80;;
54171;SDS011;40076;52.354;4.970;2022-09-09T04:35:45;12.07;;;9.07;;
54171;SDS011;40076;52.354;4.970;2022-09-09T04:38:12;12.50;;;8.13;;
54171;SDS011;40076;52.354;4.970;2022-09-09T04:40:38;13.35;;;8.35;;
54171;SDS011;40076;52.354;4.970;2022-09-09T04:43:07;17.38;;;8.13;;
54171;SDS011;40076;52.354;4.970;2022-09-09T04:45:33;13.43;;;7.75;;
54171;SDS011;40076;52.354;4.970;2022-09-09T04:47:58;16.40;;;9.05;;
54171;SDS011;40076;52.354;4.970;2022-09-09T04:50:24;12.50;;;8.32;;
54171;SDS011;40076;52.354;4.970;2022-09-09T04:52:49;11.02;;;7.80;;
54171;SDS011;40076;52.354;4.970;2022-09-09T04:55:15;12.73;;;7.68;;
54171;SDS011;40076;52.354;4.970;2022-09-09T04:57:40;10.20;;;7.15;;
54171;SDS011;40076;52.354;4.970;2022-09-09T05:00:06;10.82;;;6.22;;
54171;SDS011;40076;52.354;4.970;2022-09-09T05:02:32;11.98;;;5.82;;
54171;SDS011;40076;52.354;4.970;2022-09-09T05:04:58;8.48;;;5.45;;
54171;SDS011;40076;52.354;4.970;2022-09-09T05:07:23;12.15;;;5.90;;
54171;SDS011;40076;52.354;4.970;2022-09-09T05:09:51;11.15;;;5.25;;
54171;SDS011;40076;52.354;4.970;2022-09-09T05:12:16;11.98;;;6.20;;
54171;SDS011;40076;52.354;4.970;2022-09-09T05:14:42;12.27;;;5.22;;
54171;SDS011;40076;52.354;4.970;2022-09-09T05:17:08;9.43;;;5.18;;
54171;SDS011;40076;52.354;4.970;2022-09-09T05:19:34;11.13;;;5.13;;
54171;SDS011;40076;52.354;4.970;2022-09-09T05:21:59;12.00;;;4.68;;
54171;SDS011;40076;52.354;4.970;2022-09-09T05:24:26;10.18;;;4.72;;
54171;SDS011;40076;52.354;4.970;2022-09-09T05:26:52;9.25;;;4.53;;
54171;SDS011;40076;52.354;4.970;2022-09-09T05:29:17;8.75;;;4.18;;
54171;SDS011;40076;52.354;4.970;2022-09-09T05:31:46;7.38;;;4.13;;
54171;SDS011;40076;52.354;4.970;2022-09-09T05:34:19;6.40;;;3.92;;
54171;SDS011;40076;52.354;4.970;2022-09-09T05:36:45;8.50;;;4.38;;
54171;SDS011;40076;52.354;4.970;2022-09-09T05:39:11;11.88;;;4.28;;
54171;SDS011;40076;52.354;4.970;2022-09-09T05:41:37;9.55;;;4.10;;
54171;SDS011;40076;52.354;4.970;2022-09-09T05:44:02;10.18;;;4.10;;
54171;SDS011;40076;52.354;4.970;2022-09-09T05:46:28;10.65;;;3.63;;
54171;SDS011;40076;52.354;4.970;2022-09-09T05:48:54;10.93;;;4.55;;
54171;SDS011;40076;52.354;4.970;2022-09-09T05:51:20;10.60;;;4.22;;
54171;SDS011;40076;52.354;4.970;2022-09-09T05:53:47;8.93;;;3.75;;
54171;SDS011;40076;52.354;4.970;2022-09-09T05:56:14;10.23;;;4.22;;
54171;SDS011;40076;52.354;4.970;2022-09-09T05:58:42;20.58;;;4.55;;
54171;SDS011;40076;52.354;4.970;2022-09-09T06:01:10;12.05;;;4.28;;
54171;SDS011;40076;52.354;4.970;2022-09-09T06:03:37;14.15;;;4.43;;
54171;SDS011;40076;52.354;4.970;2022-09-09T06:06:05;11.52;;;3.92;;
54171;SDS011;40076;52.354;4.970;2022-09-09T06:08:35;8.90;;;4.00;;
54171;SDS011;40076;52.354;4.970;2022-09-09T06:11:06;19.73;;;4.90;;
54171;SDS011;40076;52.354;4.970;2022-09-09T06:13:35;40.05;;;6.18;;
54171;SDS011;40076;52.354;4.970;2022-09-09T06:16:04;14.50;;;4.05;;
54171;SDS011;40076;52.354;4.970;2022-09-09T06:18:32;13.18;;;4.15;;
54171;SDS011;40076;52.354;4.970;2022-09-09T06:21:01;15.77;;;4.07;;
54171;SDS011;40076;52.354;4.970;2022-09-09T06:23:29;15.07;;;4.43;;
54171;SDS011;40076;52.354;4.970;2022-09-09T06:26:05;8.55;;;3.67;;
54171;SDS011;40076;52.354;4.970;2022-09-09T06:28:33;13.27;;;4.10;;
54171;SDS011;40076;52.354;4.970;2022-09-09T06:31:02;9.77;;;3.42;;
54171;SDS011;40076;52.354;4.970;2022-09-09T06:33:35;9.25;;;3.53;;
54171;SDS011;40076;52.354;4.970;2022-09-09T06:36:04;19.88;;;4.30;;
54171;SDS011;40076;52.354;4.970;2022-09-09T06:38:30;14.25;;;4.18;;
54171;SDS011;40076;52.354;4.970;2022-09-09T06:40:56;9.80;;;3.65;;
54171;SDS011;40076;52.354;4.970;2022-09-09T06:43:24;8.55;;;3.50;;
54171;SDS011;40076;52.354;4.970;2022-09-09T06:45:55;12.43;;;4.15;;
54171;SDS011;40076;52.354;4.970;2022-09-09T06:48:26;15.95;;;4.40;;
54171;SDS011;40076;52.354;4.970;2022-09-09T06:51:14;9.35;;;4.03;;
54171;SDS011;40076;52.354;4.970;2022-09-09T06:53:43;13.48;;;3.78;;
54171;SDS011;40076;52.354;4.970;2022-09-09T06:58:35;9.07;;;3.90;;
54171;SDS011;40076;52.354;4.970;2022-09-09T07:01:02;11.07;;;3.28;;
54171;SDS011;40076;52.354;4.970;2022-09-09T07:03:31;12.30;;;3.05;;
54171;SDS011;40076;52.354;4.970;2022-09-09T07:05:57;10.75;;;3.70;;
54171;SDS011;40076;52.354;4.970;2022-09-09T07:08:23;8.73;;;3.13;;
54171;SDS011;40076;52.354;4.970;2022-09-09T07:10:49;11.93;;;3.00;;
54171;SDS011;40076;52.354;4.970;2022-09-09T07:13:16;10.13;;;3.30;;
54171;SDS011;40076;52.354;4.970;2022-09-09T07:15:41;12.55;;;3.53;;
54171;SDS011;40076;52.354;4.970;2022-09-09T07:18:07;10.10;;;3.65;;
54171;SDS011;40076;52.354;4.970;2022-09-09T07:20:35;10.55;;;3.80;;
54171;SDS011;40076;52.354;4.970;2022-09-09T07:23:00;11.50;;;3.90;;
54171;SDS011;40076;52.354;4.970;2022-09-09T07:25:25;11.95;;;4.03;;
54171;SDS011;40076;52.354;4.970;2022-09-09T07:27:53;15.00;;;4.60;;
54171;SDS011;40076;52.354;4.970;2022-09-09T07:30:19;15.57;;;4.70;;
54171;SDS011;40076;52.354;4.970;2022-09-09T07:32:46;12.20;;;4.97;;
54171;SDS011;40076;52.354;4.970;2022-09-09T07:35:11;14.77;;;5.63;;
54171;SDS011;40076;52.354;4.970;2022-09-09T07:37:37;14.93;;;5.28;;
54171;SDS011;40076;52.354;4.970;2022-09-09T07:40:03;13.75;;;4.93;;
54171;SDS011;40076;52.354;4.970;2022-09-09T07:42:29;15.52;;;5.70;;
54171;SDS011;40076;52.354;4.970;2022-09-09T07:44:55;10.40;;;4.93;;
54171;SDS011;40076;52.354;4.970;2022-09-09T07:47:21;13.75;;;5.70;;
54171;SDS011;40076;52.354;4.970;2022-09-09T07:49:46;17.13;;;6.20;;
54171;SDS011;40076;52.354;4.970;2022-09-09T07:52:14;13.68;;;6.07;;
54171;SDS011;40076;52.354;4.970;2022-09-09T07:54:39;12.30;;;5.45;;
54171;SDS011;40076;52.354;4.970;2022-09-09T07:57:05;18.65;;;5.55;;
54171;SDS011;40076;52.354;4.970;2022-09-09T07:59:30;12.23;;;5.50;;
54171;SDS011;40076;52.354;4.970;2022-09-09T08:01:55;13.35;;;5.82;;
54171;SDS011;40076;52.354;4.970;2022-09-09T08:04:21;12.93;;;5.18;;
54171;SDS011;40076;52.354;4.970;2022-09-09T08:06:49;14.60;;;5.05;;
54171;SDS011;40076;52.354;4.970;2022-09-09T08:09:17;9.75;;;5.22;;
54171;SDS011;40076;52.354;4.970;2022-09-09T08:11:46;11.40;;;5.72;;
54171;SDS011;40076;52.354;4.970;2022-09-09T08:14:12;13.93;;;5.38;;
54171;SDS011;40076;52.354;4.970;2022-09-09T08:16:39;12.88;;;5.20;;
54171;SDS011;40076;52.354;4.970;2022-09-09T08:19:06;21.38;;;6.53;;
54171;SDS011;40076;52.354;4.970;2022-09-09T08:21:32;13.43;;;5.35;;
54171;SDS011;40076;52.354;4.970;2022-09-09T08:23:58;12.85;;;5.07;;
54171;SDS011;40076;52.354;4.970;2022-09-09T08:26:29;12.25;;;5.65;;
54171;SDS011;40076;52.354;4.970;2022-09-09T08:28:57;11.90;;;5.10;;
54171;SDS011;40076;52.354;4.970;2022-09-09T08:31:25;13.07;;;5.57;;
54171;SDS011;40076;52.354;4.970;2022-09-09T08:33:55;11.23;;;5.35;;
54171;SDS011;40076;52.354;4.970;2022-09-09T08:36:22;12.15;;;5.25;;
54171;SDS011;40076;52.354;4.970;2022-09-09T08:38:52;14.32;;;5.72;;
54171;SDS011;40076;52.354;4.970;2022-09-09T08:43:46;11.77;;;5.00;;
54171;SDS011;40076;52.354;4.970;2022-09-09T08:46:17;12.35;;;5.07;;
54171;SDS011;40076;52.354;4.970;2022-09-09T08:51:37;13.60;;;4.97;;
54171;SDS011;40076;52.354;4.970;2022-09-09T08:54:03;9.50;;;4.70;;
54171;SDS011;40076;52.354;4.970;2022-09-09T08:56:30;10.27;;;4.18;;
54171;SDS011;40076;52.354;4.970;2022-09-09T08:58:57;11.00;;;4.85;;
54171;SDS011;40076;52.354;4.970;2022-09-09T09:01:32;12.88;;;4.70;;
54171;SDS011;40076;52.354;4.970;2022-09-09T09:07:21;14.32;;;4.80;;
54171;SDS011;40076;52.354;4.970;2022-09-09T09:12:40;11.00;;;4.88;;
54171;SDS011;40076;52.354;4.970;2022-09-09T09:15:11;14.88;;;5.00;;
54171;SDS011;40076;52.354;4.970;2022-09-09T09:17:44;16.63;;;6.05;;
54171;SDS011;40076;52.354;4.970;2022-09-09T09:20:14;10.98;;;5.15;;
54171;SDS011;40076;52.354;4.970;2022-09-09T09:22:50;12.85;;;5.25;;
54171;SDS011;40076;52.354;4.970;2022-09-09T09:25:21;11.27;;;5.60;;
54171;SDS011;40076;52.354;4.970;2022-09-09T09:27:59;9.93;;;5.38;;
54171;SDS011;40076;52.354;4.970;2022-09-09T09:30:38;9.65;;;4.38;;
54171;SDS011;40076;52.354;4.970;2022-09-09T09:35:41;9.73;;;4.40;;
54171;SDS011;40076;52.354;4.970;2022-09-09T09:38:16;10.10;;;4.20;;
54171;SDS011;40076;52.354;4.970;2022-09-09T09:40:53;13.52;;;4.25;;
54171;SDS011;40076;52.354;4.970;2022-09-09T09:43:40;13.60;;;3.88;;
54171;SDS011;40076;52.354;4.970;2022-09-09T09:46:18;12.10;;;3.70;;
54171;SDS011;40076;52.354;4.970;2022-09-09T09:48:45;11.35;;;3.55;;
54171;SDS011;40076;52.354;4.970;2022-09-09T09:51:21;8.45;;;3.42;;
54171;SDS011;40076;52.354;4.970;2022-09-09T09:53:48;9.57;;;3.97;;
54171;SDS011;40076;52.354;4.970;2022-09-09T09:56:14;11.88;;;4.10;;
54171;SDS011;40076;52.354;4.970;2022-09-09T10:01:26;10.05;;;3.53;;
54171;SDS011;40076;52.354;4.970;2022-09-09T10:03:56;12.93;;;3.33;;
54171;SDS011;40076;52.354;4.970;2022-09-09T10:06:33;11.40;;;3.67;;
54171;SDS011;40076;52.354;4.970;2022-09-09T10:09:02;13.85;;;4.10;;
54171;SDS011;40076;52.354;4.970;2022-09-09T10:11:36;15.02;;;4.03;;
54171;SDS011;40076;52.354;4.970;2022-09-09T10:14:30;9.60;;;3.42;;
54171;SDS011;40076;52.354;4.970;2022-09-09T10:22:27;10.02;;;3.53;;
54171;SDS011;40076;52.354;4.970;2022-09-09T10:25:00;13.60;;;3.20;;
54171;SDS011;40076;52.354;4.970;2022-09-09T10:30:55;10.30;;;3.25;;
54171;SDS011;40076;52.354;4.970;2022-09-09T10:33:25;10.65;;;3.10;;
54171;SDS011;40076;52.354;4.970;2022-09-09T10:38:45;9.50;;;2.60;;
54171;SDS011;40076;52.354;4.970;2022-09-09T10:54:43;8.27;;;2.72;;
54171;SDS011;40076;52.354;4.970;2022-09-09T10:57:56;10.07;;;2.63;;
54171;SDS011;40076;52.354;4.970;2022-09-09T11:00:13;7.63;;;2.70;;
54171;SDS011;40076;52.354;4.970;2022-09-09T11:02:39;6.40;;;2.20;;
54171;SDS011;40076;52.354;4.970;2022-09-09T11:05:17;9.95;;;2.90;;
54171;SDS011;40076;52.354;4.970;2022-09-09T11:10:24;6.18;;;2.40;;
54171;SDS011;40076;52.354;4.970;2022-09-09T11:12:51;11.45;;;2.70;;
54171;SDS011;40076;52.354;4.970;2022-09-09T11:15:31;11.63;;;2.78;;
54171;SDS011;40076;52.354;4.970;2022-09-09T11:18:06;8.05;;;2.30;;
54171;SDS011;40076;52.354;4.970;2022-09-09T11:20:39;9.70;;;2.70;;
54171;SDS011;40076;52.354;4.970;2022-09-09T11:23:05;8.45;;;2.60;;
54171;SDS011;40076;52.354;4.970;2022-09-09T11:25:42;8.13;;;2.38;;
54171;SDS011;40076;52.354;4.970;2022-09-09T11:31:19;8.73;;;2.80;;
54171;SDS011;40076;52.354;4.970;2022-09-09T11:36:54;8.60;;;2.30;;
54171;SDS011;40076;52.354;4.970;2022-09-09T11:39:47;10.50;;;2.20;;
54171;SDS011;40076;52.354;4.970;2022-09-09T11:44:44;11.07;;;2.92;;
54171;SDS011;40076;52.354;4.970;2022-09-09T11:47:19;8.85;;;2.33;;
54171;SDS011;40076;52.354;4.970;2022-09-09T11:49:45;7.03;;;2.15;;
54171;SDS011;40076;52.354;4.970;2022-09-09T11:52:11;5.32;;;2.05;;
54171;SDS011;40076;52.354;4.970;2022-09-09T11:54:48;9.90;;;2.25;;
54171;SDS011;40076;52.354;4.970;2022-09-09T11:57:25;7.93;;;2.20;;
54171;SDS011;40076;52.354;4.970;2022-09-09T11:59:56;5.13;;;1.58;;
54171;SDS011;40076;52.354;4.970;2022-09-09T12:02:25;7.85;;;2.28;;
54171;SDS011;40076;52.354;4.970;2022-09-09T12:05:10;5.32;;;1.70;;
54171;SDS011;40076;52.354;4.970;2022-09-09T12:07:40;7.65;;;2.00;;
54171;SDS011;40076;52.354;4.970;2022-09-09T12:10:27;5.47;;;1.98;;
54171;SDS011;40076;52.354;4.970;2022-09-09T12:13:07;10.05;;;2.03;;
54171;SDS011;40076;52.354;4.970;2022-09-09T12:15:52;4.35;;;1.70;;
54171;SDS011;40076;52.354;4.970;2022-09-09T12:18:35;5.45;;;1.75;;
54171;SDS011;40076;52.354;4.970;2022-09-09T12:23:45;5.40;;;2.08;;
54171;SDS011;40076;52.354;4.970;2022-09-09T12:26:37;7.70;;;2.00;;
54171;SDS011;40076;52.354;4.970;2022-09-09T12:31:46;6.93;;;2.30;;
54171;SDS011;40076;52.354;4.970;2022-09-09T12:39:47;5.07;;;2.47;;
54171;SDS011;40076;52.354;4.970;2022-09-09T12:42:25;5.72;;;2.65;;
54171;SDS011;40076;52.354;4.970;2022-09-09T12:44:58;5.53;;;2.70;;
54171;SDS011;40076;52.354;4.970;2022-09-09T12:50:18;7.22;;;2.83;;
54171;SDS011;40076;52.354;4.970;2022-09-09T12:52:47;8.30;;;3.15;;
54171;SDS011;40076;52.354;4.970;2022-09-09T12:55:20;7.20;;;3.30;;
54171;SDS011;40076;52.354;4.970;2022-09-09T12:57:50;10.02;;;3.30;;
54171;SDS011;40076;52.354;4.970;2022-09-09T13:00:20;6.88;;;3.03;;
54171;SDS011;40076;52.354;4.970;2022-09-09T13:05:22;9.90;;;3.70;;
54171;SDS011;40076;52.354;4.970;2022-09-09T13:07:51;8.85;;;3.80;;
54171;SDS011;40076;52.354;4.970;2022-09-09T13:10:26;7.07;;;4.22;;
54171;SDS011;40076;52.354;4.970;2022-09-09T13:12:55;9.27;;;4.68;;
54171;SDS011;40076;52.354;4.970;2022-09-09T13:15:24;9.60;;;4.60;;
54171;SDS011;40076;52.354;4.970;2022-09-09T13:17:57;9.70;;;4.22;;
54171;SDS011;40076;52.354;4.970;2022-09-09T13:20:25;6.90;;;4.70;;
54171;SDS011;40076;52.354;4.970;2022-09-09T13:22:53;9.77;;;5.32;;
54171;SDS011;40076;52.354;4.970;2022-09-09T13:25:21;10.20;;;5.22;;
54171;SDS011;40076;52.354;4.970;2022-09-09T13:27:58;10.15;;;5.18;;
54171;SDS011;40076;52.354;4.970;2022-09-09T13:30:27;9.32;;;4.50;;
54171;SDS011;40076;52.354;4.970;2022-09-09T13:33:02;7.10;;;3.92;;
54171;SDS011;40076;52.354;4.970;2022-09-09T13:35:28;8.23;;;3.58;;
54171;SDS011;40076;52.354;4.970;2022-09-09T13:37:54;8.75;;;4.03;;
54171;SDS011;40076;52.354;4.970;2022-09-09T13:40:21;10.75;;;4.70;;
54171;SDS011;40076;52.354;4.970;2022-09-09T13:42:50;10.70;;;4.47;;
54171;SDS011;40076;52.354;4.970;2022-09-09T13:45:24;8.45;;;4.03;;
54171;SDS011;40076;52.354;4.970;2022-09-09T13:47:54;7.93;;;3.70;;
54171;SDS011;40076;52.354;4.970;2022-09-09T13:52:53;10.23;;;4.75;;
54171;SDS011;40076;52.354;4.970;2022-09-09T13:55:23;9.85;;;4.88;;
54171;SDS011;40076;52.354;4.970;2022-09-09T13:57:55;9.75;;;4.65;;
54171;SDS011;40076;52.354;4.970;2022-09-09T14:00:26;7.53;;;4.30;;
54171;SDS011;40076;52.354;4.970;2022-09-09T14:02:53;6.95;;;4.50;;
54171;SDS011;40076;52.354;4.970;2022-09-09T14:05:20;9.43;;;4.97;;
54171;SDS011;40076;52.354;4.970;2022-09-09T14:07:47;9.73;;;4.60;;
54171;SDS011;40076;52.354;4.970;2022-09-09T14:10:13;9.48;;;4.50;;
54171;SDS011;40076;52.354;4.970;2022-09-09T14:12:39;9.82;;;4.68;;
54171;SDS011;40076;52.354;4.970;2022-09-09T14:15:05;10.00;;;4.40;;
54171;SDS011;40076;52.354;4.970;2022-09-09T14:17:31;8.02;;;4.30;;
54171;SDS011;40076;52.354;4.970;2022-09-09T14:19:59;8.15;;;4.80;;
54171;SDS011;40076;52.354;4.970;2022-09-09T14:22:25;8.13;;;4.35;;
54171;SDS011;40076;52.354;4.970;2022-09-09T14:24:50;7.80;;;3.97;;
54171;SDS011;40076;52.354;4.970;2022-09-09T14:27:18;9.35;;;3.95;;
54171;SDS011;40076;52.354;4.970;2022-09-09T14:29:44;8.32;;;3.95;;
54171;SDS011;40076;52.354;4.970;2022-09-09T14:32:10;8.55;;;3.83;;
54171;SDS011;40076;52.354;4.970;2022-09-09T14:34:36;5.30;;;3.08;;
54171;SDS011;40076;52.354;4.970;2022-09-09T14:37:01;8.88;;;3.33;;
54171;SDS011;40076;52.354;4.970;2022-09-09T14:39:27;8.00;;;3.22;;
54171;SDS011;40076;52.354;4.970;2022-09-09T14:41:55;5.93;;;3.10;;
54171;SDS011;40076;52.354;4.970;2022-09-09T14:44:21;6.53;;;3.53;;
54171;SDS011;40076;52.354;4.970;2022-09-09T14:46:47;8.52;;;3.50;;
54171;SDS011;40076;52.354;4.970;2022-09-09T14:49:15;6.32;;;2.83;;
54171;SDS011;40076;52.354;4.970;2022-09-09T14:51:40;4.90;;;2.90;;
54171;SDS011;40076;52.354;4.970;2022-09-09T14:54:06;8.23;;;2.83;;
54171;SDS011;40076;52.354;4.970;2022-09-09T14:56:31;5.35;;;2.65;;
54171;SDS011;40076;52.354;4.970;2022-09-09T14:59:01;7.28;;;3.08;;
54171;SDS011;40076;52.354;4.970;2022-09-09T15:01:27;7.97;;;2.70;;
54171;SDS011;40076;52.354;4.970;2022-09-09T15:04:01;4.63;;;2.47;;
54171;SDS011;40076;52.354;4.970;2022-09-09T15:06:29;5.90;;;1.85;;
54171;SDS011;40076;52.354;4.970;2022-09-09T15:08:57;5.28;;;1.45;;
54171;SDS011;40076;52.354;4.970;2022-09-09T15:11:25;4.25;;;1.63;;
54171;SDS011;40076;52.354;4.970;2022-09-09T15:13:52;6.72;;;1.77;;
54171;SDS011;40076;52.354;4.970;2022-09-09T15:16:20;2.70;;;1.42;;
54171;SDS011;40076;52.354;4.970;2022-09-09T15:18:46;4.50;;;2.03;;
54171;SDS011;40076;52.354;4.970;2022-09-09T15:21:16;6.25;;;1.50;;
54171;SDS011;40076;52.354;4.970;2022-09-09T15:23:44;5.10;;;1.30;;
54171;SDS011;40076;52.354;4.970;2022-09-09T15:26:09;6.50;;;1.70;;
54171;SDS011;40076;52.354;4.970;2022-09-09T15:28:36;6.15;;;1.67;;
54171;SDS011;40076;52.354;4.970;2022-09-09T15:31:19;4.75;;;1.83;;
54171;SDS011;40076;52.354;4.970;2022-09-09T15:36:23;7.55;;;2.10;;
54171;SDS011;40076;52.354;4.970;2022-09-09T15:38:50;8.38;;;1.90;;
54171;SDS011;40076;52.354;4.970;2022-09-09T15:41:17;6.38;;;1.95;;
54171;SDS011;40076;52.354;4.970;2022-09-09T15:43:47;8.63;;;2.08;;
54171;SDS011;40076;52.354;4.970;2022-09-09T15:48:56;5.07;;;1.75;;
54171;SDS011;40076;52.354;4.970;2022-09-09T15:51:23;9.38;;;2.70;;
54171;SDS011;40076;52.354;4.970;2022-09-09T15:53:53;5.72;;;1.80;;
54171;SDS011;40076;52.354;4.970;2022-09-09T15:56:20;5.70;;;1.98;;
54171;SDS011;40076;52.354;4.970;2022-09-09T15:58:46;6.00;;;2.10;;
54171;SDS011;40076;52.354;4.970;2022-09-09T16:01:11;6.88;;;2.08;;
54171;SDS011;40076;52.354;4.970;2022-09-09T16:03:38;5.70;;;2.10;;
54171;SDS011;40076;52.354;4.970;2022-09-09T16:06:06;6.40;;;2.15;;
54171;SDS011;40076;52.354;4.970;2022-09-09T16:08:32;9.13;;;2.67;;
54171;SDS011;40076;52.354;4.970;2022-09-09T16:11:09;5.70;;;2.78;;
54171;SDS011;40076;52.354;4.970;2022-09-09T16:13:37;5.82;;;2.22;;
54171;SDS011;40076;52.354;4.970;2022-09-09T16:16:03;6.40;;;2.53;;
54171;SDS011;40076;52.354;4.970;2022-09-09T16:18:39;5.57;;;2.78;;
54171;SDS011;40076;52.354;4.970;2022-09-09T16:21:06;7.72;;;3.03;;
54171;SDS011;40076;52.354;4.970;2022-09-09T16:23:35;7.50;;;3.05;;
54171;SDS011;40076;52.354;4.970;2022-09-09T16:26:01;9.15;;;3.22;;
54171;SDS011;40076;52.354;4.970;2022-09-09T16:28:27;7.60;;;3.53;;
54171;SDS011;40076;52.354;4.970;2022-09-09T16:30:52;6.47;;;3.17;;
54171;SDS011;40076;52.354;4.970;2022-09-09T16:33:18;7.95;;;2.80;;
54171;SDS011;40076;52.354;4.970;2022-09-09T16:35:43;5.50;;;2.70;;
54171;SDS011;40076;52.354;4.970;2022-09-09T16:38:09;6.28;;;2.30;;
54171;SDS011;40076;52.354;4.970;2022-09-09T16:40:35;9.32;;;2.53;;
54171;SDS011;40076;52.354;4.970;2022-09-09T16:43:01;10.25;;;2.05;;
54171;SDS011;40076;52.354;4.970;2022-09-09T16:45:27;4.05;;;1.45;;
54171;SDS011;40076;52.354;4.970;2022-09-09T16:47:52;8.98;;;1.73;;
54171;SDS011;40076;52.354;4.970;2022-09-09T16:50:18;5.10;;;1.90;;
54171;SDS011;40076;52.354;4.970;2022-09-09T16:52:43;6.82;;;1.75;;
54171;SDS011;40076;52.354;4.970;2022-09-09T16:55:09;5.80;;;1.77;;
54171;SDS011;40076;52.354;4.970;2022-09-09T16:57:34;7.95;;;2.08;;
54171;SDS011;40076;52.354;4.970;2022-09-09T17:00:00;6.78;;;2.33;;